createdAt,value
2022-08-09T00:02:31.132Z,102502.84
2022-08-09T00:07:44.457Z,102504.00
2022-08-09T00:12:51.654Z,102507.34
2022-08-09T00:18:07.523Z,102509.50
2022-08-09T00:23:56.724Z,102502.88
2022-08-09T00:28:39.717Z,102511.31
2022-08-09T00:33:51.084Z,102511.94
2022-08-09T00:38:54.700Z,102508.09
2022-08-09T00:44:11.766Z,102508.09
2022-08-09T00:49:21.797Z,102512.22
2022-08-09T00:54:31.421Z,102511.84
2022-08-09T00:59:40.906Z,102506.25
2022-08-09T01:04:54.240Z,102508.78
2022-08-09T01:10:03.906Z,102505.09
2022-08-09T01:15:17.010Z,102513.44
2022-08-09T01:20:25.909Z,102509.34
2022-08-09T01:25:49.001Z,102509.47
2022-08-09T01:30:59.164Z,102512.13
2022-08-09T01:36:07.083Z,102512.63
2022-08-09T01:41:15.112Z,102521.72
2022-08-09T01:46:26.419Z,102512.44
2022-08-09T01:51:32.492Z,102517.31
2022-08-09T01:56:40.699Z,102518.69
2022-08-09T02:01:59.088Z,102519.31
2022-08-09T02:07:18.521Z,102512.09
2022-08-09T02:12:34.929Z,102517.84
2022-08-09T02:18:00.535Z,102516.81
2022-08-09T02:23:08.950Z,102519.13
2022-08-09T02:28:18.335Z,102519.72
2022-08-09T02:33:38.397Z,102526.75
2022-08-09T02:38:54.058Z,102522.06
2022-08-09T02:44:10.568Z,102521.94
2022-08-09T02:49:27.296Z,102528.75
2022-08-09T02:54:54.578Z,102527.59
2022-08-09T03:00:20.933Z,102530.03
2022-08-09T03:05:27.690Z,102530.94
2022-08-09T03:10:31.022Z,102527.28
2022-08-09T03:16:04.591Z,102532.25
2022-08-09T03:21:00.570Z,102526.41
2022-08-09T03:26:05.156Z,102521.59
2022-08-09T03:31:10.507Z,102516.09
2022-08-09T03:36:27.374Z,102519.66
2022-08-09T03:41:48.410Z,102532.41
2022-08-09T03:46:52.025Z,102524.94
2022-08-09T03:52:00.294Z,102530.94
2022-08-09T03:57:18.120Z,102537.94
2022-08-09T04:02:26.428Z,102539.56
2022-08-09T04:07:52.281Z,102536.38
2022-08-09T04:13:01.084Z,102536.84
2022-08-09T04:18:08.570Z,102541.06
2022-08-09T04:23:17.405Z,102548.41
2022-08-09T04:28:30.810Z,102558.84
2022-08-09T04:33:53.207Z,102548.38
2022-08-09T04:39:04.716Z,102543.00
2022-08-09T04:44:11.984Z,102546.31
2022-08-09T04:49:17.378Z,102551.00
2022-08-09T04:54:34.862Z,102564.59
2022-08-09T04:59:38.080Z,102570.66
2022-08-09T05:04:41.099Z,102571.41
2022-08-09T05:09:49.891Z,102574.19
2022-08-09T05:14:53.012Z,102571.94
2022-08-09T05:19:56.832Z,102562.88
2022-08-09T05:25:02.669Z,102575.72
2022-08-09T05:30:06.417Z,102571.78
2022-08-09T05:35:11.284Z,102570.84
2022-08-09T05:40:16.595Z,102585.00
2022-08-09T05:45:21.264Z,102587.53
2022-08-09T05:50:50.639Z,102586.63
2022-08-09T05:55:53.149Z,102586.50
2022-08-09T06:00:58.212Z,102598.72
2022-08-09T06:06:05.859Z,102600.50
2022-08-09T06:11:16.359Z,102609.28
2022-08-09T06:16:22.184Z,102604.56
2022-08-09T06:21:25.018Z,102604.41
2022-08-09T06:26:29.926Z,102604.44
2022-08-09T06:31:40.251Z,102604.78
2022-08-09T06:36:59.666Z,102602.56
2022-08-09T06:42:08.684Z,102616.84
2022-08-09T06:47:14.288Z,102619.88
2022-08-09T06:52:17.866Z,102618.13
2022-08-09T06:57:42.541Z,102616.59
2022-08-09T07:02:45.900Z,102611.91
2022-08-09T07:08:00.450Z,102609.44
2022-08-09T07:13:28.357Z,102616.22
2022-08-09T07:18:29.030Z,102619.09
2022-08-09T07:23:36.260Z,102621.53
2022-08-09T07:29:08.935Z,102618.75
2022-08-09T07:33:58.286Z,102618.59
2022-08-09T07:39:03.037Z,102619.19
2022-08-09T07:44:07.404Z,102609.66
2022-08-09T07:49:15.471Z,102608.59
2022-08-09T07:54:19.149Z,102607.72
2022-08-09T07:59:34.370Z,102619.22
2022-08-09T08:04:54.050Z,102623.78
2022-08-09T08:10:07.787Z,102619.53
2022-08-09T08:15:16.697Z,102614.38
2022-08-09T08:20:29.111Z,102611.16
2022-08-09T08:25:44.070Z,102614.59
2022-08-09T08:30:50.274Z,102616.50
2022-08-09T08:36:00.155Z,102616.75
2022-08-09T08:41:05.763Z,102620.94
2022-08-09T08:46:33.112Z,102623.91
2022-08-09T08:51:41.524Z,102621.59
2022-08-09T08:57:00.572Z,102624.72
2022-08-09T09:02:07.250Z,102623.97
2022-08-09T09:07:12.557Z,102630.06
2022-08-09T09:12:17.190Z,102629.47
2022-08-09T09:17:21.461Z,102639.31
2022-08-09T09:22:28.886Z,102629.56
2022-08-09T09:28:05.728Z,102632.47
2022-08-09T09:33:15.912Z,102622.16
2022-08-09T09:38:27.904Z,102626.50
2022-08-09T09:43:41.643Z,102620.97
2022-08-09T09:49:07.650Z,102620.94
2022-08-09T09:54:20.621Z,102627.31
2022-08-09T09:59:36.896Z,102621.56
2022-08-09T10:04:41.753Z,102621.28
2022-08-09T10:09:48.709Z,102623.94
2022-08-09T10:14:52.022Z,102619.66
2022-08-09T10:19:57.264Z,102619.88
2022-08-09T10:25:12.171Z,102610.72
2022-08-09T10:35:44.385Z,102615.78
2022-08-09T10:40:50.099Z,102614.78
2022-08-09T10:45:59.809Z,102617.41
2022-08-09T10:51:16.572Z,102600.25
2022-08-09T10:56:23.341Z,102605.31
2022-08-09T11:03:12.075Z,102598.28
2022-08-09T11:07:57.811Z,102601.75
2022-08-09T11:13:49.478Z,102609.88
2022-08-09T11:18:45.096Z,102610.19
2022-08-09T11:24:01.519Z,102603.66
2022-08-09T11:29:07.130Z,102601.06
2022-08-09T11:34:18.725Z,102613.00
2022-08-09T11:39:24.210Z,102610.94
2022-08-09T11:44:45.201Z,102599.03
2022-08-09T11:50:54.842Z,102600.25
2022-08-09T11:55:51.949Z,102597.56
2022-08-09T12:00:59.939Z,102588.72
2022-08-09T12:06:10.027Z,102586.91
2022-08-09T12:11:16.010Z,102573.69
2022-08-09T12:16:37.487Z,102585.53
2022-08-09T12:21:48.832Z,102577.81
2022-08-09T12:29:13.478Z,102578.88
2022-08-09T12:32:27.487Z,102572.16
2022-08-09T12:37:44.047Z,102561.31
2022-08-09T12:42:55.712Z,102568.84
2022-08-09T12:47:59.405Z,102563.91
2022-08-09T12:53:09.628Z,102557.50
2022-08-09T12:58:24.348Z,102555.28
2022-08-09T13:03:53.289Z,102551.13
2022-08-09T13:09:11.106Z,102536.34
2022-08-09T13:14:40.762Z,102541.59
2022-08-09T13:20:07.574Z,102534.34
2022-08-09T13:25:11.914Z,102542.06
2022-08-09T13:31:11.156Z,102544.06
2022-08-09T13:36:37.869Z,102531.91
2022-08-09T13:41:51.669Z,102539.44
2022-08-09T13:47:17.762Z,102537.78
2022-08-09T13:52:00.975Z,102536.97
2022-08-09T13:57:06.410Z,102548.66
2022-08-09T14:02:11.015Z,102530.31
2022-08-09T14:07:13.942Z,102540.09
2022-08-09T14:12:17.327Z,102541.16
2022-08-09T14:17:22.808Z,102539.22
2022-08-09T14:22:26.158Z,102527.56
2022-08-09T14:27:34.011Z,102535.22
2022-08-09T14:32:38.619Z,102531.00
2022-08-09T14:38:02.295Z,102536.53
2022-08-09T14:43:04.567Z,102544.28
2022-08-09T14:48:08.770Z,102529.66
2022-08-09T14:53:14.450Z,102532.28
2022-08-09T14:58:20.190Z,102532.41
2022-08-09T15:03:24.421Z,102536.94
2022-08-09T15:08:30.360Z,102540.75
2022-08-09T15:13:48.416Z,102534.53
2022-08-09T15:18:59.706Z,102529.09
2022-08-09T15:24:13.059Z,102538.97
2022-08-09T15:30:55.521Z,102539.84
2022-08-09T15:34:44.613Z,102537.38
2022-08-09T15:39:53.798Z,102528.53
2022-08-09T15:44:58.348Z,102540.06
2022-08-09T15:50:05.404Z,102540.75
2022-08-09T15:55:10.883Z,102539.28
2022-08-09T16:00:24.717Z,102538.38
2022-08-09T16:05:47.123Z,102538.31
2022-08-09T16:10:56.411Z,102532.09
2022-08-09T16:16:10.960Z,102532.00
2022-08-09T16:21:25.801Z,102536.13
2022-08-09T16:26:34.555Z,102533.94
2022-08-09T16:32:19.085Z,102534.75
2022-08-09T16:37:04.065Z,102535.41
2022-08-09T16:42:11.030Z,102531.53
2022-08-09T16:48:40.065Z,102529.56
2022-08-09T16:52:43.086Z,102531.16
2022-08-09T16:58:09.321Z,102532.56
2022-08-09T17:03:09.221Z,102537.50
2022-08-09T17:08:42.774Z,102540.81
2022-08-09T17:14:01.661Z,102541.44
2022-08-09T17:19:05.499Z,102545.84
2022-08-09T17:24:26.901Z,102539.38
2022-08-09T17:29:37.888Z,102550.03
2022-08-09T17:35:04.116Z,102544.47
2022-08-09T17:40:18.103Z,102543.22
2022-08-09T17:45:27.208Z,102549.91
2022-08-09T17:50:37.014Z,102549.56
2022-08-09T17:55:48.844Z,102552.81
2022-08-09T18:00:56.273Z,102557.88
2022-08-09T18:06:00.875Z,102546.69
2022-08-09T18:11:05.357Z,102552.72
2022-08-09T18:16:10.710Z,102561.63
2022-08-09T18:21:22.795Z,102569.44
2022-08-09T18:26:28.044Z,102567.22
2022-08-09T18:31:51.468Z,102567.81
2022-08-09T18:36:54.215Z,102569.22
2022-08-09T18:41:58.800Z,102572.41
2022-08-09T18:47:08.074Z,102579.88
2022-08-09T18:52:18.780Z,102565.91
2022-08-09T18:57:43.379Z,102571.00
2022-08-09T19:02:48.019Z,102577.72
2022-08-09T19:08:04.190Z,102582.75
2022-08-09T19:13:19.269Z,102585.88
2022-08-09T19:18:33.198Z,102585.50
2022-08-09T19:24:39.447Z,102581.31
2022-08-09T19:29:15.564Z,102587.09
2022-08-09T19:34:24.797Z,102589.94
2022-08-09T19:40:02.298Z,102596.41
2022-08-09T19:44:53.625Z,102591.66
2022-08-09T19:50:08.544Z,102594.91
2022-08-09T19:55:19.723Z,102606.28
2022-08-09T20:00:35.201Z,102597.25
2022-08-09T20:05:46.690Z,102597.78
2022-08-09T20:10:53.402Z,102592.00
2022-08-09T20:16:37.175Z,102600.16
2022-08-09T20:21:22.104Z,102603.88
2022-08-09T20:26:43.722Z,102605.00
2022-08-09T20:32:16.996Z,102607.38
2022-08-09T20:37:12.897Z,102602.63
2022-08-09T20:42:16.963Z,102603.06
2022-08-09T20:47:45.241Z,102613.38
2022-08-09T20:52:45.196Z,102609.19
2022-08-09T20:58:08.433Z,102615.84
2022-08-09T21:03:12.377Z,102625.22
2022-08-09T21:08:22.441Z,102624.91
2022-08-09T21:13:45.951Z,102626.28
2022-08-09T21:20:19.055Z,102626.84
2022-08-09T21:24:28.559Z,102633.66
2022-08-09T21:29:48.506Z,102627.13
2022-08-09T21:34:53.437Z,102631.19
2022-08-09T21:39:56.389Z,102636.63
2022-08-09T21:44:59.349Z,102633.97
2022-08-09T21:50:03.758Z,102636.03
2022-08-09T21:55:08.423Z,102638.00
2022-08-09T22:00:25.305Z,102631.81
2022-08-09T22:05:35.973Z,102632.88
2022-08-09T22:11:00.749Z,102628.72
2022-08-09T22:16:03.944Z,102635.28
2022-08-09T22:21:09.210Z,102629.03
2022-08-09T22:26:12.951Z,102636.44
2022-08-09T22:31:35.894Z,102627.97
2022-08-09T22:36:45.788Z,102632.91
2022-08-09T22:41:49.305Z,102647.28
2022-08-09T22:48:13.804Z,102649.31
2022-08-09T22:52:17.711Z,102644.91
2022-08-09T22:57:22.572Z,102646.78
2022-08-09T23:02:34.669Z,102633.72
2022-08-09T23:08:22.097Z,102625.28
2022-08-09T23:13:23.916Z,102620.63
2022-08-09T23:18:26.824Z,102611.66
2022-08-09T23:23:31.084Z,102620.13
2022-08-09T23:28:34.004Z,102629.09
2022-08-09T23:33:36.983Z,102625.09
2022-08-09T23:38:48.847Z,102636.91
2022-08-09T23:43:55.107Z,102630.81
2022-08-09T23:48:58.588Z,102638.00
2022-08-09T23:54:03.625Z,102645.44
2022-08-09T23:59:06.589Z,102643.78
